Time;durP1;ratioP1;P1;durP2;ratioP2;P2;SDS_P1;SDS_P2;PMS_P1;PMS_P2;Temp;Humidity;BMP_temperature;BMP_pressure;BME280_temperature;BME280_humidity;BME280_pressure;Samples;Min_cycle;Max_cycle;Signal;HPM_P1;HPM_P2
2022/02/16 00:02:21;;;;;;;5.55;5.15;;;9.30;90.80;;;;;;5091602;28;20029;-64
2022/02/16 00:04:46;;;;;;;5.38;4.88;;;9.30;90.80;;;;;;5091377;28;20034;-63
2022/02/16 00:07:12;;;;;;;7.18;6.47;;;9.30;90.80;;;;;;5091366;28;20032;-63
2022/02/16 00:09:38;;;;;;;5.30;4.90;;;9.30;90.90;;;;;;5090606;28;20077;-63
2022/02/16 00:12:04;;;;;;;5.28;4.78;;;9.30;90.90;;;;;;5091811;28;20036;-64
2022/02/16 00:14:30;;;;;;;6.30;5.70;;;9.30;90.90;;;;;;5090964;28;20032;-63
2022/02/16 00:16:56;;;;;;;5.07;4.63;;;9.30;90.90;;;;;;5091238;28;20585;-63
2022/02/16 00:19:23;;;;;;;4.90;4.40;;;9.30;90.90;;;;;;5084799;28;20082;-64
2022/02/16 00:21:49;;;;;;;4.70;4.30;;;9.30;90.90;;;;;;5087674;28;20020;-64
2022/02/16 00:24:14;;;;;;;4.57;4.18;;;9.30;90.90;;;;;;5091205;28;20031;-66
2022/02/16 00:26:40;;;;;;;4.85;4.40;;;9.30;91.10;;;;;;5091129;28;20053;-66
2022/02/16 00:29:06;;;;;;;4.90;4.50;;;9.30;90.80;;;;;;5091458;28;20031;-66
2022/02/16 00:31:32;;;;;;;5.90;5.32;;;9.30;90.80;;;;;;5091180;28;20107;-66
2022/02/16 00:33:57;;;;;;;4.85;4.45;;;9.40;90.80;;;;;;5090336;28;20036;-66
2022/02/16 00:36:23;;;;;;;4.75;4.35;;;9.30;90.80;;;;;;5090761;28;20047;-66
2022/02/16 00:38:49;;;;;;;5.97;5.45;;;9.30;90.80;;;;;;5091031;28;20031;-66
2022/02/16 00:41:15;;;;;;;5.93;5.38;;;9.40;90.90;;;;;;5090215;28;20075;-66
2022/02/16 00:43:40;;;;;;;5.95;5.45;;;9.40;90.90;;;;;;5090539;28;20134;-66
2022/02/16 00:46:06;;;;;;;5.90;5.35;;;9.30;90.80;;;;;;5089728;28;20056;-66
2022/02/16 00:48:32;;;;;;;6.68;6.07;;;9.40;90.90;;;;;;5089306;28;20039;-64
2022/02/16 00:50:58;;;;;;;6.00;5.38;;;9.30;90.80;;;;;;5089303;28;20421;-63
2022/02/16 00:53:24;;;;;;;5.50;5.00;;;9.40;90.90;;;;;;5090472;28;20471;-63
2022/02/16 00:55:50;;;;;;;6.15;5.57;;;9.40;90.90;;;;;;5090627;28;20039;-63
2022/02/16 00:58:15;;;;;;;5.13;4.72;;;9.40;90.90;;;;;;5090830;28;20035;-66
2022/02/16 01:00:41;;;;;;;6.30;5.72;;;9.40;90.90;;;;;;5089483;28;20487;-66
2022/02/16 01:03:07;;;;;;;5.40;4.90;;;9.40;90.90;;;;;;5089854;28;20024;-66
2022/02/16 01:05:32;;;;;;;5.55;5.15;;;9.40;90.80;;;;;;5090760;28;20390;-66
2022/02/16 01:07:58;;;;;;;6.47;5.88;;;9.40;90.80;;;;;;5089418;28;20031;-66
2022/02/16 01:10:24;;;;;;;6.53;5.93;;;9.40;90.80;;;;;;5090773;28;20109;-66
2022/02/16 01:12:50;;;;;;;6.32;5.75;;;9.40;90.80;;;;;;5090010;28;20081;-66
2022/02/16 01:15:16;;;;;;;7.65;6.95;;;9.40;90.80;;;;;;5090676;28;20078;-66
2022/02/16 01:17:43;;;;;;;8.57;7.82;;;9.40;90.70;;;;;;5087931;28;20044;-66
2022/02/16 01:20:09;;;;;;;8.15;7.32;;;9.50;90.80;;;;;;5090356;28;20077;-66
2022/02/16 01:22:35;;;;;;;8.95;7.47;;;9.50;90.90;;;;;;5089896;28;20020;-66
2022/02/16 01:25:01;;;;;;;10.50;9.32;;;9.40;90.80;;;;;;5090417;28;20028;-66
2022/02/16 01:27:27;;;;;;;8.98;8.18;;;9.50;90.90;;;;;;5090154;28;20060;-66
2022/02/16 01:29:52;;;;;;;9.73;8.50;;;9.40;90.90;;;;;;5088843;28;20517;-66
2022/02/16 01:32:18;;;;;;;11.30;8.60;;;9.50;90.90;;;;;;5100074;28;20039;-66
2022/02/16 01:34:44;;;;;;;8.80;7.70;;;9.50;90.90;;;;;;5088586;28;20108;-66
2022/02/16 01:37:10;;;;;;;10.00;8.68;;;9.50;90.90;;;;;;5089971;28;20028;-66
2022/02/16 01:39:36;;;;;;;11.30;8.50;;;9.50;90.90;;;;;;5090055;28;20024;-66
2022/02/16 01:42:03;;;;;;;9.68;7.80;;;9.40;90.90;;;;;;5088874;28;20519;-66
2022/02/16 01:44:30;;;;;;;10.93;8.85;;;9.50;90.90;;;;;;5089670;28;20025;-66
2022/02/16 01:47:04;;;;;;;9.27;8.38;;;9.50;91.00;;;;;;5089483;28;20027;-66
2022/02/16 01:49:33;;;;;;;11.48;8.02;;;9.40;91.00;;;;;;5089387;28;20382;-66
2022/02/16 01:51:59;;;;;;;8.55;7.75;;;9.40;91.00;;;;;;5089727;28;20062;-66
2022/02/16 01:54:25;;;;;;;9.82;8.00;;;9.50;91.10;;;;;;5089389;28;20036;-66
2022/02/16 01:56:51;;;;;;;9.93;8.18;;;9.50;91.10;;;;;;5089620;28;20448;-66
2022/02/16 01:59:18;;;;;;;9.45;7.40;;;9.50;91.10;;;;;;5089916;28;20452;-66
2022/02/16 02:01:44;;;;;;;11.55;8.80;;;9.40;91.10;;;;;;5089653;28;20398;-66
2022/02/16 02:04:10;;;;;;;9.50;8.35;;;9.50;91.20;;;;;;5088887;28;20027;-66
2022/02/16 02:06:36;;;;;;;8.98;8.07;;;9.40;91.10;;;;;;5089354;28;20024;-66
2022/02/16 02:09:02;;;;;;;9.07;8.15;;;9.50;91.20;;;;;;5089570;28;20331;-66
2022/02/16 02:11:28;;;;;;;10.60;9.60;;;9.40;91.20;;;;;;5088713;28;20029;-66
2022/02/16 02:13:59;;;;;;;9.52;8.38;;;9.40;91.20;;;;;;5088442;28;20047;-66
2022/02/16 02:16:26;;;;;;;10.07;8.50;;;9.40;91.20;;;;;;5088779;28;20074;-66
2022/02/16 02:18:52;;;;;;;9.52;8.40;;;9.50;91.20;;;;;;5088926;28;20024;-66
2022/02/16 02:21:18;;;;;;;11.90;8.75;;;9.50;91.20;;;;;;5089607;28;20035;-66
2022/02/16 02:23:46;;;;;;;9.90;7.88;;;9.50;91.20;;;;;;5071636;28;20035;-66
2022/02/16 02:26:12;;;;;;;10.48;8.65;;;9.50;91.20;;;;;;5087524;28;20395;-66
2022/02/16 02:28:37;;;;;;;11.05;8.55;;;9.50;91.20;;;;;;5089220;28;20039;-66
2022/02/16 02:31:04;;;;;;;9.02;8.13;;;9.50;91.20;;;;;;5089519;28;20059;-66
2022/02/16 02:33:29;;;;;;;9.05;7.78;;;9.50;91.20;;;;;;5085152;28;20020;-66
2022/02/16 02:35:55;;;;;;;8.43;7.18;;;9.50;91.20;;;;;;5069193;28;20057;-66
2022/02/16 02:38:21;;;;;;;9.90;8.70;;;9.50;91.20;;;;;;5086788;28;20032;-66
2022/02/16 02:40:54;;;;;;;8.95;7.78;;;9.50;91.20;;;;;;5089351;28;20067;-66
2022/02/16 02:43:20;;;;;;;9.70;7.18;;;9.50;91.30;;;;;;5087565;28;20028;-66
2022/02/16 02:45:47;;;;;;;8.23;7.15;;;9.50;91.30;;;;;;5099537;28;20028;-66
2022/02/16 02:48:13;;;;;;;8.02;6.55;;;9.50;91.30;;;;;;5088755;28;20046;-66
2022/02/16 02:50:38;;;;;;;8.13;7.10;;;9.50;91.30;;;;;;5089136;28;20503;-66
2022/02/16 02:53:04;;;;;;;7.55;6.70;;;9.50;91.30;;;;;;5088540;28;20032;-66
2022/02/16 02:55:30;;;;;;;9.45;7.60;;;9.50;91.30;;;;;;5089249;28;20047;-66
2022/02/16 02:57:56;;;;;;;7.70;6.75;;;9.50;91.30;;;;;;5088372;28;20134;-66
2022/02/16 03:00:22;;;;;;;7.95;6.50;;;9.60;91.30;;;;;;5067994;28;20040;-66
2022/02/16 03:02:47;;;;;;;7.70;5.93;;;9.60;91.30;;;;;;5067309;28;20028;-66
2022/02/16 03:05:13;;;;;;;7.05;6.13;;;9.50;91.30;;;;;;5072804;28;20028;-66
2022/02/16 03:07:40;;;;;;;7.15;6.28;;;9.60;91.30;;;;;;5072376;28;20032;-66
2022/02/16 03:10:07;;;;;;;6.93;6.22;;;9.60;91.30;;;;;;5072850;28;20063;-66
2022/02/16 03:12:33;;;;;;;7.47;6.25;;;9.60;91.30;;;;;;5092884;28;20036;-66
2022/02/16 03:14:58;;;;;;;8.13;6.00;;;9.50;91.20;;;;;;5092994;28;20028;-66
2022/02/16 03:17:28;;;;;;;8.60;6.22;;;9.60;91.20;;;;;;5090526;28;20399;-66
2022/02/16 03:19:54;;;;;;;6.90;6.13;;;9.60;91.20;;;;;;5091743;28;20020;-66
2022/02/16 03:22:20;;;;;;;7.80;6.93;;;9.60;91.20;;;;;;5089645;28;20077;-66
2022/02/16 03:24:46;;;;;;;8.43;7.18;;;9.60;91.30;;;;;;5091525;28;20020;-66
2022/02/16 03:27:12;;;;;;;6.75;5.95;;;9.60;91.30;;;;;;5092273;28;20021;-67
2022/02/16 03:29:37;;;;;;;6.85;6.13;;;9.50;91.30;;;;;;5092345;28;20032;-67
2022/02/16 03:32:03;;;;;;;7.97;6.53;;;9.60;91.30;;;;;;5092149;28;20552;-67
2022/02/16 03:34:29;;;;;;;7.05;6.35;;;9.60;91.40;;;;;;5092091;28;20028;-67
2022/02/16 03:36:56;;;;;;;8.63;6.65;;;9.60;91.40;;;;;;5090829;28;20028;-66
2022/02/16 03:39:21;;;;;;;7.93;6.72;;;9.60;91.40;;;;;;5092243;28;20020;-66
2022/02/16 03:41:47;;;;;;;7.15;6.03;;;9.60;91.40;;;;;;5092324;28;20046;-66
2022/02/16 03:44:13;;;;;;;7.97;5.85;;;9.60;91.40;;;;;;5092218;28;20285;-66
2022/02/16 03:46:39;;;;;;;6.72;6.03;;;9.60;91.40;;;;;;5092307;28;20079;-66
2022/02/16 03:49:05;;;;;;;6.40;5.53;;;9.60;91.40;;;;;;5091677;28;20495;-66
2022/02/16 03:51:31;;;;;;;6.53;5.93;;;9.60;91.40;;;;;;5091812;28;20567;-66
2022/02/16 03:53:56;;;;;;;6.18;5.57;;;9.60;91.40;;;;;;5089934;28;20498;-66
2022/02/16 03:56:22;;;;;;;7.65;5.78;;;9.60;91.40;;;;;;5091265;28;20044;-66
2022/02/16 03:58:47;;;;;;;7.10;5.30;;;9.60;91.40;;;;;;5091181;28;20107;-66
2022/02/16 04:01:13;;;;;;;5.50;4.97;;;9.50;91.30;;;;;;5091376;28;20066;-66
2022/02/16 04:03:39;;;;;;;6.53;5.07;;;9.60;91.30;;;;;;5091783;28;20051;-66
2022/02/16 04:06:05;;;;;;;5.28;4.22;;;9.50;91.30;;;;;;5103437;28;20107;-66
2022/02/16 04:08:31;;;;;;;7.65;5.20;;;9.50;91.30;;;;;;5091662;28;20039;-66
2022/02/16 04:10:56;;;;;;;7.18;4.82;;;9.50;91.30;;;;;;5090963;28;20457;-67
2022/02/16 04:13:22;;;;;;;4.72;4.32;;;9.60;91.30;;;;;;5090990;28;20399;-66
2022/02/16 04:15:48;;;;;;;5.95;4.47;;;9.50;91.20;;;;;;5091235;28;20043;-66
2022/02/16 04:18:13;;;;;;;4.90;4.40;;;9.50;91.20;;;;;;5091016;28;20044;-66
2022/02/16 04:20:39;;;;;;;5.05;3.97;;;9.50;91.20;;;;;;5091551;28;20379;-66
2022/02/16 04:23:05;;;;;;;5.10;4.20;;;9.50;91.20;;;;;;5090906;28;20016;-66
2022/02/16 04:25:31;;;;;;;4.63;3.67;;;9.50;91.30;;;;;;5091607;28;20482;-66
2022/02/16 04:27:57;;;;;;;5.05;4.45;;;9.50;91.30;;;;;;5089430;28;20036;-66
2022/02/16 04:30:23;;;;;;;4.68;3.92;;;9.60;91.30;;;;;;5085799;28;20020;-66
2022/02/16 04:32:48;;;;;;;5.63;4.20;;;9.60;91.30;;;;;;5088270;28;20457;-66
2022/02/16 04:35:14;;;;;;;4.32;3.92;;;9.50;91.30;;;;;;5090619;28;20437;-66
2022/02/16 04:37:40;;;;;;;4.65;3.70;;;9.50;91.30;;;;;;5084025;28;20259;-66
2022/02/16 04:40:06;;;;;;;5.25;4.60;;;9.50;91.30;;;;;;5089284;28;20444;-66
2022/02/16 04:42:32;;;;;;;5.25;4.57;;;9.50;91.40;;;;;;5089282;28;20395;-66
2022/02/16 04:44:58;;;;;;;5.15;4.15;;;9.50;91.40;;;;;;5090769;28;20286;-66
2022/02/16 04:47:23;;;;;;;5.25;4.35;;;9.50;91.40;;;;;;5090965;28;20039;-66
2022/02/16 04:49:49;;;;;;;4.75;4.18;;;9.50;91.40;;;;;;5090288;28;20035;-66
2022/02/16 04:52:15;;;;;;;4.57;4.13;;;9.60;91.50;;;;;;5089287;28;20061;-66
2022/02/16 04:54:41;;;;;;;6.53;4.78;;;9.60;91.50;;;;;;5090215;28;20146;-66
2022/02/16 04:57:07;;;;;;;5.38;4.85;;;9.50;91.40;;;;;;5090950;28;20024;-66
2022/02/16 04:59:33;;;;;;;5.32;4.82;;;9.60;91.50;;;;;;5089298;28;20094;-66
2022/02/16 05:01:59;;;;;;;4.88;4.22;;;9.60;91.50;;;;;;5089149;28;20107;-66
2022/02/16 05:04:24;;;;;;;4.25;3.85;;;9.60;91.50;;;;;;5089916;28;20099;-67
2022/02/16 05:06:50;;;;;;;6.30;4.07;;;9.60;91.50;;;;;;5088228;28;20322;-67
2022/02/16 05:09:16;;;;;;;4.80;4.32;;;9.60;91.50;;;;;;5088953;28;20032;-67
2022/02/16 05:11:41;;;;;;;6.05;4.10;;;9.60;91.50;;;;;;5090543;28;20036;-67
2022/02/16 05:14:07;;;;;;;5.20;4.57;;;9.60;91.50;;;;;;5089898;28;20131;-67
2022/02/16 05:16:33;;;;;;;5.20;4.40;;;9.60;91.50;;;;;;5088998;28;20048;-66
2022/02/16 05:18:59;;;;;;;5.40;4.13;;;9.60;91.50;;;;;;5084200;28;20028;-67
2022/02/16 05:21:25;;;;;;;5.20;4.30;;;9.60;91.50;;;;;;5068871;28;20028;-67
2022/02/16 05:23:51;;;;;;;4.97;4.43;;;9.60;91.50;;;;;;5068366;28;20024;-67
2022/02/16 05:26:17;;;;;;;4.75;4.32;;;9.60;91.50;;;;;;5088376;28;20039;-63
2022/02/16 05:28:43;;;;;;;5.30;4.20;;;9.60;91.50;;;;;;5090471;28;20028;-63
2022/02/16 05:31:08;;;;;;;5.28;4.78;;;9.70;91.50;;;;;;5090173;28;20028;-63
2022/02/16 05:33:36;;;;;;;4.82;4.43;;;9.70;91.50;;;;;;5088983;28;20061;-63
2022/02/16 05:36:03;;;;;;;5.97;5.20;;;9.70;91.50;;;;;;5089692;28;20036;-63
2022/02/16 05:38:28;;;;;;;5.30;4.80;;;9.70;91.60;;;;;;5089770;28;20032;-63
2022/02/16 05:40:54;;;;;;;6.35;5.78;;;9.70;91.60;;;;;;5089592;28;20156;-64
2022/02/16 05:43:20;;;;;;;4.90;4.50;;;9.70;91.60;;;;;;5087774;28;20061;-64
2022/02/16 05:45:46;;;;;;;4.80;4.38;;;9.70;91.60;;;;;;5089864;28;20062;-63
2022/02/16 05:48:19;;;;;;;4.85;4.45;;;9.70;91.70;;;;;;5087687;28;20024;-63
2022/02/16 05:50:46;;;;;;;5.75;5.25;;;9.70;91.70;;;;;;5089977;28;20032;-64
2022/02/16 05:53:12;;;;;;;5.07;4.68;;;9.70;91.70;;;;;;5088664;28;20120;-64
2022/02/16 05:55:38;;;;;;;5.70;5.18;;;9.70;91.70;;;;;;5089622;28;20122;-64
2022/02/16 05:58:03;;;;;;;5.65;5.15;;;9.70;91.80;;;;;;5089289;28;20074;-64
2022/02/16 06:00:29;;;;;;;5.55;5.05;;;9.70;91.80;;;;;;5089390;28;20024;-64
2022/02/16 06:02:54;;;;;;;4.88;4.30;;;9.70;91.80;;;;;;5088718;28;20487;-64
2022/02/16 06:05:20;;;;;;;4.55;4.25;;;9.70;91.80;;;;;;5089292;28;20024;-64
2022/02/16 06:07:46;;;;;;;5.72;5.00;;;9.70;91.80;;;;;;5089342;28;20040;-63
2022/02/16 06:10:11;;;;;;;4.20;3.90;;;9.70;91.80;;;;;;5089781;28;20028;-64
2022/02/16 06:12:41;;;;;;;4.15;3.85;;;9.70;91.80;;;;;;5088812;28;20224;-63
2022/02/16 06:15:09;;;;;;;4.47;4.18;;;9.70;91.90;;;;;;5089431;28;20390;-64
2022/02/16 06:17:34;;;;;;;3.88;3.60;;;9.70;92.00;;;;;;5088930;28;20066;-64
2022/02/16 06:20:00;;;;;;;4.38;4.03;;;9.70;92.00;;;;;;5089783;28;20040;-64
2022/02/16 06:22:26;;;;;;;4.55;4.15;;;9.70;92.00;;;;;;5089214;28;20032;-64
2022/02/16 06:24:52;;;;;;;4.70;3.83;;;9.70;92.10;;;;;;5089086;28;20475;-64
2022/02/16 06:27:18;;;;;;;4.68;4.28;;;9.70;92.10;;;;;;5089487;28;20028;-64
2022/02/16 06:29:44;;;;;;;3.67;3.42;;;9.70;92.10;;;;;;5087789;28;20051;-63
2022/02/16 06:32:09;;;;;;;3.58;3.30;;;9.70;92.10;;;;;;5089079;28;20040;-63
2022/02/16 06:34:35;;;;;;;4.80;4.28;;;9.80;92.10;;;;;;5088708;28;20174;-63
2022/02/16 06:37:01;;;;;;;4.80;4.30;;;9.70;92.00;;;;;;5089197;28;20028;-63
2022/02/16 06:39:26;;;;;;;4.10;3.80;;;9.80;92.00;;;;;;5081335;28;20032;-64
2022/02/16 06:41:52;;;;;;;3.70;3.40;;;9.80;92.00;;;;;;5089063;28;20032;-64
2022/02/16 06:44:18;;;;;;;4.07;3.78;;;9.80;92.00;;;;;;5079403;28;20368;-63
2022/02/16 06:46:44;;;;;;;4.15;3.85;;;9.80;92.00;;;;;;5092094;28;20516;-63
2022/02/16 06:49:10;;;;;;;2.92;2.72;;;9.80;92.00;;;;;;5087729;28;20027;-63
2022/02/16 06:51:36;;;;;;;3.63;3.33;;;9.80;92.00;;;;;;5082943;28;20043;-64
2022/02/16 06:54:01;;;;;;;3.92;3.50;;;9.80;92.00;;;;;;5084096;28;20043;-63
2022/02/16 06:56:28;;;;;;;3.63;3.33;;;9.90;92.10;;;;;;5090581;28;20044;-64
2022/02/16 06:58:54;;;;;;;3.70;3.40;;;9.90;92.10;;;;;;5086707;28;20443;-64
2022/02/16 07:01:19;;;;;;;3.63;3.33;;;9.80;92.10;;;;;;5091280;28;20028;-64
2022/02/16 07:03:45;;;;;;;3.17;2.97;;;9.90;92.20;;;;;;5091029;28;20096;-63
2022/02/16 07:06:11;;;;;;;4.10;3.80;;;9.90;92.20;;;;;;5081148;28;20025;-63
2022/02/16 07:08:37;;;;;;;3.75;3.45;;;9.90;92.20;;;;;;5085371;28;20028;-64
2022/02/16 07:11:03;;;;;;;4.30;3.63;;;9.90;92.20;;;;;;5083628;28;20495;-64
2022/02/16 07:13:29;;;;;;;3.55;2.80;;;9.90;92.30;;;;;;5083859;28;20016;-63
2022/02/16 07:15:55;;;;;;;3.17;2.97;;;9.90;92.30;;;;;;5088259;28;20032;-64
2022/02/16 07:18:20;;;;;;;2.80;2.60;;;9.90;92.40;;;;;;5091339;28;20809;-64
2022/02/16 07:20:46;;;;;;;3.85;3.55;;;9.90;92.40;;;;;;5049440;28;20032;-63
2022/02/16 07:23:12;;;;;;;3.33;3.03;;;9.90;92.40;;;;;;5082981;28;20024;-63
2022/02/16 07:25:37;;;;;;;5.15;3.53;;;9.90;92.40;;;;;;5086864;28;20064;-63
2022/02/16 07:28:04;;;;;;;4.03;3.10;;;9.90;92.40;;;;;;5072411;28;20036;-64
2022/02/16 07:30:30;;;;;;;3.45;2.80;;;10.00;92.40;;;;;;5075495;28;20479;-63
2022/02/16 07:32:56;;;;;;;2.90;2.70;;;10.00;92.40;;;;;;5076395;28;20032;-63
2022/02/16 07:35:22;;;;;;;2.55;2.35;;;10.00;92.50;;;;;;5073767;28;20109;-64
2022/02/16 07:37:51;;;;;;;2.85;2.55;;;10.00;92.50;;;;;;5081412;28;20035;-65
2022/02/16 07:40:17;;;;;;;3.22;2.90;;;10.00;92.50;;;;;;5090945;28;20028;-64
2022/02/16 07:42:43;;;;;;;3.25;2.95;;;10.00;92.50;;;;;;5091860;28;20028;-64
2022/02/16 07:45:09;;;;;;;3.85;3.10;;;10.00;92.60;;;;;;5092336;28;20032;-64
2022/02/16 07:47:35;;;;;;;3.50;3.20;;;10.00;92.60;;;;;;5079791;28;20048;-64
2022/02/16 07:52:04;;;;;;;3.33;3.03;;;10.10;92.40;;;;;;5114999;27;20423;-63
2022/02/16 07:54:30;;;;;;;2.92;2.72;;;10.10;92.60;;;;;;5110359;28;20028;-63
2022/02/16 07:56:56;;;;;;;2.53;2.30;;;10.10;92.70;;;;;;5108672;28;20034;-64
2022/02/16 07:59:22;;;;;;;2.70;2.50;;;10.10;92.70;;;;;;5105436;28;20031;-63
2022/02/16 08:01:47;;;;;;;2.53;2.33;;;10.10;92.70;;;;;;5088401;28;20030;-64
2022/02/16 08:04:15;;;;;;;3.28;2.40;;;10.10;92.70;;;;;;5106815;28;20067;-63
2022/02/16 08:06:45;;;;;;;2.90;2.70;;;10.20;92.70;;;;;;5105608;28;20044;-63
2022/02/16 08:09:12;;;;;;;3.00;2.70;;;10.20;92.70;;;;;;5112292;28;20485;-63
2022/02/16 08:11:43;;;;;;;2.63;2.42;;;10.20;92.70;;;;;;5111638;28;20583;-64
2022/02/16 08:14:09;;;;;;;3.25;2.90;;;10.20;92.70;;;;;;5103545;28;20026;-64
2022/02/16 08:16:36;;;;;;;3.03;2.83;;;10.30;92.70;;;;;;5098651;28;20047;-64
2022/02/16 08:19:03;;;;;;;2.65;2.45;;;10.30;92.80;;;;;;5101691;28;20032;-65
2022/02/16 08:21:29;;;;;;;2.90;2.60;;;10.30;92.80;;;;;;5113386;27;20036;-65
2022/02/16 08:23:55;;;;;;;2.70;2.50;;;10.30;92.80;;;;;;5097832;28;20039;-65
2022/02/16 08:26:21;;;;;;;2.90;2.70;;;10.40;92.80;;;;;;5113507;28;20058;-65
2022/02/16 08:28:47;;;;;;;3.40;3.10;;;10.40;92.80;;;;;;5098353;28;20032;-65
2022/02/16 08:31:12;;;;;;;3.25;2.95;;;10.40;92.80;;;;;;5101343;28;20470;-65
2022/02/16 08:33:38;;;;;;;4.78;3.58;;;10.50;92.90;;;;;;5105015;28;20031;-65
2022/02/16 08:36:05;;;;;;;3.53;3.22;;;10.50;92.90;;;;;;5098777;28;20028;-66
2022/02/16 08:38:31;;;;;;;3.70;3.40;;;10.50;93.00;;;;;;5102031;28;20028;-65
2022/02/16 08:40:57;;;;;;;3.67;3.38;;;10.50;93.10;;;;;;5081056;28;20044;-65
2022/02/16 08:43:23;;;;;;;3.80;3.38;;;10.50;93.20;;;;;;5089238;28;20029;-65
2022/02/16 08:45:49;;;;;;;3.53;3.22;;;10.50;93.30;;;;;;5093973;28;20024;-65
2022/02/16 08:48:15;;;;;;;3.70;3.28;;;10.50;93.30;;;;;;5086711;28;20038;-65
2022/02/16 08:50:40;;;;;;;4.40;3.60;;;10.50;93.30;;;;;;5077377;28;20047;-65
2022/02/16 08:53:06;;;;;;;3.95;3.65;;;10.50;93.40;;;;;;5100123;28;20040;-65
2022/02/16 08:55:32;;;;;;;4.45;4.05;;;10.60;93.40;;;;;;5105191;28;20034;-65
2022/02/16 08:57:58;;;;;;;4.95;4.45;;;10.60;93.40;;;;;;5103479;28;20036;-65
2022/02/16 09:00:24;;;;;;;5.10;4.60;;;10.60;93.40;;;;;;5087942;28;20028;-65
2022/02/16 09:02:51;;;;;;;5.80;5.20;;;10.60;93.40;;;;;;5094517;28;20172;-65
2022/02/16 09:05:17;;;;;;;5.43;4.93;;;10.60;93.50;;;;;;5082961;28;20435;-65
2022/02/16 09:07:43;;;;;;;5.57;5.07;;;10.60;93.50;;;;;;5089799;28;20095;-65
2022/02/16 09:10:10;;;;;;;6.00;5.40;;;10.60;93.50;;;;;;5084878;28;20561;-66
2022/02/16 09:12:36;;;;;;;5.88;5.28;;;10.70;93.60;;;;;;5080998;28;20090;-65
2022/02/16 09:15:04;;;;;;;5.53;5.03;;;10.70;93.60;;;;;;5081234;28;20479;-65
2022/02/16 09:17:30;;;;;;;6.50;5.90;;;10.70;93.60;;;;;;5091605;28;20044;-65
2022/02/16 09:19:57;;;;;;;6.00;5.50;;;10.70;93.60;;;;;;5075016;28;20040;-65
2022/02/16 09:22:23;;;;;;;6.82;6.13;;;10.70;93.60;;;;;;5079842;28;20032;-66
2022/02/16 09:24:50;;;;;;;6.32;5.72;;;10.80;93.60;;;;;;5089927;28;20032;-65
2022/02/16 09:27:19;;;;;;;6.18;5.57;;;10.80;93.60;;;;;;5091655;28;20027;-66
2022/02/16 09:29:45;;;;;;;7.05;6.38;;;10.80;93.60;;;;;;5087212;28;20046;-66
2022/02/16 09:32:11;;;;;;;7.43;6.45;;;10.80;93.80;;;;;;5089349;28;20355;-66
2022/02/16 09:34:37;;;;;;;6.88;5.93;;;10.80;93.60;;;;;;5084420;28;20024;-65
2022/02/16 09:37:04;;;;;;;6.88;6.15;;;10.90;93.60;;;;;;5086228;28;20059;-65
2022/02/16 09:39:30;;;;;;;6.10;5.60;;;10.90;93.60;;;;;;5090510;28;20112;-66
2022/02/16 09:41:56;;;;;;;6.88;6.18;;;10.90;93.60;;;;;;5089961;28;20020;-66
2022/02/16 09:44:46;;;;;;;6.88;6.28;;;10.90;93.60;;;;;;5084039;28;20039;-65
2022/02/16 09:47:12;;;;;;;8.75;5.93;;;11.00;93.60;;;;;;5080009;28;20430;-66
2022/02/16 09:49:39;;;;;;;7.00;6.40;;;11.00;93.60;;;;;;5081808;28;20035;-65
2022/02/16 09:52:07;;;;;;;6.82;5.88;;;11.00;93.60;;;;;;5084278;28;20071;-65
2022/02/16 09:54:33;;;;;;;7.25;6.28;;;11.00;93.60;;;;;;5081347;28;20039;-65
2022/02/16 09:56:59;;;;;;;8.07;5.53;;;11.10;93.60;;;;;;5083176;28;20033;-65
2022/02/16 09:59:24;;;;;;;7.28;6.28;;;11.10;93.60;;;;;;5070202;28;20073;-65
2022/02/16 10:01:58;;;;;;;6.78;6.07;;;11.10;93.60;;;;;;5080602;28;20046;-65
2022/02/16 10:04:32;;;;;;;7.32;6.53;;;11.10;93.50;;;;;;5069758;28;20043;-66
2022/02/16 10:06:58;;;;;;;8.57;6.00;;;11.10;93.50;;;;;;5090032;28;20412;-65
2022/02/16 10:09:40;;;;;;;8.98;6.68;;;11.20;93.50;;;;;;5071794;28;20040;-65
2022/02/16 10:12:07;;;;;;;9.27;7.40;;;11.20;93.50;;;;;;5088024;28;20089;-66
2022/02/16 10:14:36;;;;;;;9.63;6.88;;;11.30;93.40;;;;;;5086596;28;20025;-65
2022/02/16 10:17:18;;;;;;;8.75;6.18;;;11.20;93.40;;;;;;5087686;28;20032;-65
2022/02/16 10:19:56;;;;;;;10.57;6.50;;;11.30;93.40;;;;;;5089234;28;20059;-65
2022/02/16 10:22:24;;;;;;;8.60;6.03;;;11.30;93.30;;;;;;5087295;28;20024;-65
2022/02/16 10:24:50;;;;;;;11.88;6.85;;;11.30;93.30;;;;;;5090898;28;20027;-65
2022/02/16 10:27:17;;;;;;;10.23;6.32;;;11.30;93.30;;;;;;5089890;28;20029;-65
2022/02/16 10:29:44;;;;;;;10.23;6.35;;;11.40;93.30;;;;;;5085722;28;20151;-65
2022/02/16 10:32:24;;;;;;;11.15;6.57;;;11.50;93.30;;;;;;5084477;28;20467;-65
2022/02/16 10:34:55;;;;;;;11.20;6.70;;;11.50;93.30;;;;;;5071244;28;20032;-65
2022/02/16 10:37:32;;;;;;;9.35;5.85;;;11.50;93.20;;;;;;5079670;28;20032;-65
2022/02/16 10:40:24;;;;;;;14.15;5.97;;;11.50;93.20;;;;;;5090194;28;20035;-65
2022/02/16 10:42:57;;;;;;;9.97;5.90;;;11.60;93.10;;;;;;5070204;28;20045;-65
2022/02/16 10:45:26;;;;;;;11.20;5.78;;;11.60;93.10;;;;;;5073767;28;20039;-65
2022/02/16 10:48:06;;;;;;;8.05;5.22;;;11.60;93.10;;;;;;5090337;28;20032;-65
2022/02/16 10:50:33;;;;;;;12.45;5.25;;;11.70;93.00;;;;;;5096236;28;20052;-65
2022/02/16 10:53:00;;;;;;;9.70;4.90;;;11.70;93.00;;;;;;5061809;28;20125;-65
2022/02/16 10:55:45;;;;;;;9.35;4.47;;;11.70;92.90;;;;;;5093780;28;20488;-65
2022/02/16 10:58:20;;;;;;;9.40;4.88;;;11.70;92.90;;;;;;5091123;28;20024;-65
2022/02/16 11:00:48;;;;;;;9.05;4.38;;;11.80;92.90;;;;;;5090347;28;20020;-65
2022/02/16 11:03:35;;;;;;;10.80;5.30;;;11.80;92.80;;;;;;5088717;28;20395;-65
2022/02/16 11:06:10;;;;;;;11.10;4.85;;;11.80;92.70;;;;;;5080255;28;20028;-65
2022/02/16 11:08:36;;;;;;;10.75;4.97;;;11.80;92.70;;;;;;5084363;28;20100;-65
2022/02/16 11:11:03;;;;;;;10.68;5.82;;;11.80;92.70;;;;;;5066127;28;20462;-65
2022/02/16 11:15:05;;;;;;;9.10;5.53;;;11.90;92.30;;;;;;5112528;27;20104;-65
2022/02/16 11:17:31;;;;;;;10.80;5.25;;;11.90;92.60;;;;;;5086093;28;20035;-64
2022/02/16 11:20:19;;;;;;;10.20;5.05;;;11.90;92.60;;;;;;5099953;28;20024;-64
2022/02/16 11:22:50;;;;;;;12.88;5.38;;;11.90;92.50;;;;;;5101341;28;20055;-64
2022/02/16 11:25:48;;;;;;;10.52;4.97;;;11.90;92.50;;;;;;5102591;28;20028;-64
2022/02/16 11:28:30;;;;;;;13.70;5.68;;;12.00;92.50;;;;;;5058363;28;20048;-64
2022/02/16 11:30:56;;;;;;;14.77;4.88;;;12.00;92.40;;;;;;5106382;28;20028;-64
2022/02/16 11:33:24;;;;;;;11.15;4.32;;;12.00;92.30;;;;;;5105881;28;20035;-64
2022/02/16 11:35:52;;;;;;;15.68;5.88;;;12.10;92.30;;;;;;5106398;28;20347;-64
2022/02/16 11:38:24;;;;;;;18.08;5.05;;;12.10;92.20;;;;;;5086397;28;20486;-64
2022/02/16 11:40:55;;;;;;;10.85;4.30;;;12.10;92.10;;;;;;5105488;28;20050;-64
2022/02/16 11:43:51;;;;;;;13.18;4.07;;;12.10;92.00;;;;;;5086838;28;20028;-64
2022/02/16 11:46:39;;;;;;;12.43;3.55;;;12.20;91.90;;;;;;5083956;28;20035;-64
2022/02/16 11:49:06;;;;;;;11.75;3.20;;;12.20;91.80;;;;;;5106416;28;20020;-64
2022/02/16 11:51:35;;;;;;;11.00;3.00;;;12.20;91.80;;;;;;5066105;28;20426;-64
2022/02/16 11:54:44;;;;;;;8.80;3.35;;;12.20;91.80;;;;;;5105241;28;20100;-64
2022/02/16 11:57:33;;;;;;;8.70;2.85;;;12.10;91.40;;;;;;5098497;28;20024;-66
2022/02/16 12:00:13;;;;;;;9.85;2.95;;;12.30;91.60;;;;;;5107529;28;20035;-67
2022/02/16 12:02:58;;;;;;;9.32;2.85;;;12.20;91.60;;;;;;5118017;28;20396;-67
2022/02/16 12:05:45;;;;;;;13.88;3.10;;;12.30;91.60;;;;;;5111452;28;20015;-67
2022/02/16 12:08:20;;;;;;;10.77;3.28;;;12.30;91.30;;;;;;5096585;28;20020;-67
2022/02/16 12:11:02;;;;;;;12.38;4.13;;;12.30;91.30;;;;;;5111752;28;20024;-67
2022/02/16 12:13:32;;;;;;;10.10;3.35;;;12.40;91.20;;;;;;5097312;28;20577;-67
2022/02/16 12:16:07;;;;;;;10.98;3.50;;;12.40;91.10;;;;;;5086458;28;20027;-67
2022/02/16 12:18:35;;;;;;;16.02;4.70;;;12.40;91.00;;;;;;5100431;28;20022;-67
2022/02/16 12:21:01;;;;;;;11.93;3.92;;;12.40;90.90;;;;;;5105528;28;20023;-67
2022/02/16 12:23:29;;;;;;;8.60;3.47;;;12.40;90.90;;;;;;5085881;28;20150;-67
2022/02/16 12:26:21;;;;;;;10.27;3.25;;;12.40;90.80;;;;;;5088310;28;20085;-67
2022/02/16 12:30:39;;;;;;;10.98;3.22;;;12.50;90.50;;;;;;5064972;28;20894;-69
2022/02/16 12:33:19;;;;;;;10.05;4.30;;;12.50;90.60;;;;;;5062195;28;20037;-69
2022/02/16 12:35:46;;;;;;;10.05;3.50;;;12.50;90.50;;;;;;5065258;28;20571;-69
2022/02/16 12:38:12;;;;;;;13.35;3.45;;;12.50;90.50;;;;;;5061090;28;20064;-69
2022/02/16 12:40:38;;;;;;;9.48;3.20;;;12.50;90.40;;;;;;5065316;28;20056;-69
2022/02/16 12:44:09;;;;;;;10.63;3.60;;;12.50;90.00;;;;;;5104391;27;20392;-64
2022/02/16 12:46:42;;;;;;;12.95;4.78;;;12.50;90.20;;;;;;5087341;28;20043;-65
2022/02/16 12:49:13;;;;;;;12.07;4.40;;;12.50;90.20;;;;;;5095518;28;20558;-65
2022/02/16 12:51:42;;;;;;;11.52;3.55;;;12.50;90.20;;;;;;5086501;28;20370;-65
2022/02/16 12:56:21;;;;;;;14.75;4.53;;;12.60;90.00;;;;;;5104941;27;21470;-65
2022/02/16 12:58:47;;;;;;;11.13;3.90;;;12.60;90.10;;;;;;5105634;28;20032;-64
2022/02/16 13:01:13;;;;;;;9.95;4.10;;;12.60;90.00;;;;;;5105878;28;20024;-64
2022/02/16 13:03:39;;;;;;;15.23;5.32;;;12.60;90.10;;;;;;5101609;28;20032;-64